createdAt,value
2023-05-04T00:11:03.490Z,86.0
2023-05-04T00:24:03.490Z,82.0
2023-05-04T00:37:03.502Z,84.0
2023-05-04T00:50:03.625Z,86.0
2023-05-04T01:03:03.573Z,88.0
2023-05-04T01:16:03.517Z,88.0
2023-05-04T01:29:03.532Z,88.0
2023-05-04T01:42:03.522Z,85.0
2023-05-04T01:55:03.526Z,85.0
2023-05-04T02:08:03.530Z,86.0
2023-05-04T02:21:03.537Z,89.0
2023-05-04T02:34:03.530Z,90.0
2023-05-04T02:47:03.549Z,91.0
2023-05-04T03:00:03.695Z,91.0
2023-05-04T03:13:03.598Z,90.0
2023-05-04T03:26:03.570Z,89.0
2023-05-04T03:39:03.548Z,92.0
2023-05-04T03:53:03.562Z,92.0
2023-05-04T04:07:03.571Z,93.0
2023-05-04T04:21:03.585Z,94.0
2023-05-04T04:35:03.563Z,94.0
2023-05-04T04:49:03.589Z,93.0
2023-05-04T05:03:03.599Z,93.0
2023-05-04T05:17:03.629Z,93.0
2023-05-04T05:31:03.640Z,93.0
2023-05-04T05:45:03.594Z,89.0
2023-05-04T05:59:03.653Z,86.0
2023-05-04T06:13:03.693Z,84.0
2023-05-04T06:27:03.657Z,79.0
2023-05-04T06:41:04.965Z,67.0
2023-05-04T06:55:03.658Z,60.0
2023-05-04T07:09:03.659Z,49.0
2023-05-04T07:23:03.672Z,52.0
2023-05-04T07:37:03.662Z,49.0
2023-05-04T07:50:03.834Z,57.0
2023-05-04T08:04:03.766Z,53.0
2023-05-04T08:18:03.786Z,52.0
2023-05-04T08:32:03.802Z,50.0
2023-05-04T08:46:03.811Z,47.0
2023-05-04T09:00:03.765Z,45.0
2023-05-04T09:14:03.788Z,43.0
2023-05-04T09:28:03.782Z,43.0
2023-05-04T09:42:03.793Z,46.0
2023-05-04T09:56:05.162Z,44.0
2023-05-04T10:10:03.782Z,44.0
2023-05-04T10:25:03.908Z,44.0
2023-05-04T10:39:03.802Z,45.0
2023-05-04T10:53:03.799Z,43.0
2023-05-04T11:07:03.800Z,43.0
2023-05-04T11:21:03.801Z,43.0
2023-05-04T11:35:03.971Z,44.0
2023-05-04T11:49:03.814Z,42.0
2023-05-04T12:03:03.855Z,41.0
2023-05-04T12:17:04.383Z,40.0
2023-05-04T12:33:03.848Z,41.0
2023-05-04T12:47:04.359Z,43.0
2023-05-04T13:03:03.897Z,46.0
2023-05-04T13:17:04.409Z,48.0
2023-05-04T13:32:03.868Z,50.0
2023-05-04T13:47:03.908Z,49.0
2023-05-04T14:08:03.842Z,51.0
2023-05-04T14:22:03.870Z,52.0
2023-05-04T14:36:03.852Z,52.0
2023-05-04T14:50:03.881Z,51.0
2023-05-04T15:04:03.870Z,52.0
2023-05-04T15:18:03.909Z,50.0
2023-05-04T15:34:03.867Z,55.0
2023-05-04T15:48:03.947Z,55.0
2023-05-04T16:02:03.880Z,53.0
2023-05-04T16:16:03.904Z,50.0
2023-05-04T16:30:03.886Z,52.0
2023-05-04T16:44:03.906Z,51.0
2023-05-04T16:58:03.910Z,55.0
2023-05-04T17:12:03.970Z,60.0
2023-05-04T17:26:03.890Z,61.0
2023-05-04T17:40:03.924Z,66.0
2023-05-04T17:54:03.928Z,71.0
2023-05-04T18:08:03.931Z,74.0
2023-05-04T18:22:03.913Z,77.0
2023-05-04T18:36:03.931Z,80.0
2023-05-04T18:50:03.929Z,83.0
2023-05-04T19:04:03.945Z,84.0
2023-05-04T19:17:03.942Z,86.0
2023-05-04T19:30:03.939Z,86.0
2023-05-04T19:43:03.946Z,85.0
2023-05-04T19:56:03.954Z,86.0
2023-05-04T20:09:03.970Z,86.0
2023-05-04T20:22:03.972Z,84.0
2023-05-04T20:35:03.997Z,87.0
2023-05-04T20:48:03.995Z,88.0
2023-05-04T21:01:04.122Z,89.0
2023-05-04T21:14:03.980Z,89.0
2023-05-04T21:27:03.982Z,89.0
2023-05-04T21:40:04.007Z,90.0
2023-05-04T21:53:04.019Z,90.0
2023-05-04T22:06:04.067Z,90.0
2023-05-04T22:19:04.045Z,91.0
2023-05-04T22:32:04.034Z,91.0
2023-05-04T22:45:04.051Z,92.0
2023-05-04T22:58:04.071Z,93.0
2023-05-04T23:11:04.063Z,93.0
2023-05-04T23:24:04.068Z,93.0
2023-05-04T23:37:04.075Z,92.0
2023-05-04T23:50:04.063Z,92.0
